KSZL

Whiteman AFB Airport

Knob Noster, Missouri, USA
METAR KSZL 200456Z 13003KT 10SM BKN070 23/22 A2989 RMK AO2A SLP116 T02320218 $
Observed Flight Rules
Jun-20 @ 04:56 UTC (44 minutes ago) Visual Flight Rules
Wind Visibility Clouds
130° at 3 knots 10 miles
  • Broken at 7,000' AGL
Temperatures Readings
Current 23°C / 73°F
Dewpoint 22°C / 72°F
Humidity 94%
Altimeter 29.89" Hg
Pressure 1011.6 hPa
Elevation 265
METAR KSZL 200456Z 13003KT 10SM BKN070 23/22 A2989 RMK AO2A SLP116 T02320218 $
Observed Flight Rules
Jun-20 @ 04:56 UTC
(44 minutes ago)
VFR
Wind Visibility
130° at 3 knots 10 miles
Clouds
  • Broken at 7,000' AGL
Temperature Dewpoint
23°C / 73°F 22°C / 72°F
Humidity Altimeter Pressure
94% 29.89" Hg 1011.6 hPa